Time;durP1;ratioP1;P1;durP2;ratioP2;P2;SDS_P1;SDS_P2;PMS_P1;PMS_P2;Temp;Humidity;BMP_temperature;BMP_pressure;BME280_temperature;BME280_humidity;BME280_pressure;Samples;Min_cycle;Max_cycle;Signal;HPM_P1;HPM_P2
2022/11/11 00:02:06;;;;;;;3.95;1.85;;;20.70;48.60;;;;;;5045521;28;20035;-51
2022/11/11 00:04:50;;;;;;;4.25;1.85;;;20.70;48.50;;;;;;5049267;28;20102;-56
2022/11/11 00:07:34;;;;;;;4.35;1.75;;;20.70;48.60;;;;;;5049354;28;20418;-55
2022/11/11 00:10:18;;;;;;;4.28;1.52;;;20.70;48.60;;;;;;5048380;28;20051;-53
2022/11/11 00:13:04;;;;;;;6.00;1.85;;;20.70;48.60;;;;;;5048066;28;20067;-54
2022/11/11 00:15:48;;;;;;;3.42;1.60;;;20.70;48.60;;;;;;5048908;28;20549;-54
2022/11/11 00:27:34;;;;;;;2.95;1.58;;;20.70;48.40;;;;;;5048906;28;20075;-57
2022/11/11 00:30:19;;;;;;;3.75;1.50;;;20.60;48.30;;;;;;5049685;28;20098;-54
2022/11/11 00:33:03;;;;;;;;;;;20.60;48.30;;;;;;5048075;28;20047;-52
2022/11/11 00:35:53;;;;;;;4.82;2.10;;;20.60;48.30;;;;;;5047596;28;20358;-53
2022/11/11 00:38:47;;;;;;;3.92;1.80;;;20.60;48.30;;;;;;5048699;28;20059;-54
2022/11/11 00:41:32;;;;;;;3.15;1.50;;;20.60;48.30;;;;;;5049432;28;20040;-54
2022/11/11 00:44:16;;;;;;;4.63;1.75;;;20.60;48.30;;;;;;5046148;28;20047;-53
2022/11/11 00:53:11;;;;;;;3.00;1.48;;;20.60;48.20;;;;;;5046300;28;20734;-52
2022/11/11 00:55:56;;;;;;;3.53;1.92;;;20.60;48.20;;;;;;5046346;28;20052;-51
2022/11/11 00:58:40;;;;;;;3.38;1.58;;;20.60;48.20;;;;;;5048965;28;20052;-55
2022/11/11 01:01:24;;;;;;;3.63;1.67;;;20.60;48.20;;;;;;5047403;28;20467;-54
2022/11/11 01:04:08;;;;;;;4.05;1.90;;;20.60;48.30;;;;;;5047101;28;20090;-54
2022/11/11 01:06:52;;;;;;;4.30;1.60;;;20.50;48.10;;;;;;5049210;28;20091;-56
2022/11/11 01:09:36;;;;;;;3.13;1.80;;;20.60;48.20;;;;;;5045529;28;20040;-53
2022/11/11 01:12:21;;;;;;;3.85;1.60;;;20.60;48.20;;;;;;5049397;28;20083;-55
2022/11/11 01:15:05;;;;;;;;;;;20.60;48.20;;;;;;5047719;28;20118;-53
2022/11/11 01:17:49;;;;;;;2.42;1.52;;;20.50;48.20;;;;;;5044533;28;19928;-53
2022/11/11 01:20:36;;;;;;;2.70;1.42;;;20.60;48.20;;;;;;5048602;28;20102;-55
2022/11/11 01:23:20;;;;;;;3.20;1.98;;;20.60;48.30;;;;;;5047740;28;20121;-56
2022/11/11 01:26:09;;;;;;;3.40;2.00;;;20.60;48.20;;;;;;5052899;28;20044;-54
2022/11/11 01:28:55;;;;;;;5.40;2.15;;;20.50;48.20;;;;;;5051163;28;20052;-56
2022/11/11 01:31:39;;;;;;;2.60;1.60;;;20.50;48.20;;;;;;5052377;28;20040;-54
2022/11/11 01:34:23;;;;;;;4.20;1.77;;;20.50;48.20;;;;;;5049368;28;20427;-55
2022/11/11 01:37:08;;;;;;;2.78;1.67;;;20.50;48.20;;;;;;5052989;28;20458;-53
2022/11/11 01:39:52;;;;;;;2.58;1.50;;;20.50;48.20;;;;;;5051476;28;20047;-50
2022/11/11 01:43:09;;;;;;;3.78;1.88;;;20.50;48.20;;;;;;5049165;28;20095;-52
2022/11/11 01:45:58;;;;;;;2.72;1.40;;;20.50;48.20;;;;;;5050418;28;20047;-52
2022/11/11 01:51:56;;;;;;;4.45;2.13;;;20.50;48.20;;;;;;5051288;28;20039;-52
2022/11/11 01:54:43;;;;;;;3.70;2.10;;;20.50;48.20;;;;;;5049779;28;20099;-52
2022/11/11 01:57:33;;;;;;;3.00;1.67;;;20.50;48.20;;;;;;5048583;28;20048;-49
2022/11/11 02:00:18;;;;;;;2.92;1.73;;;20.50;48.20;;;;;;5051003;28;20052;-52
2022/11/11 02:03:07;;;;;;;3.08;1.63;;;20.50;48.20;;;;;;5049708;28;20487;-55
2022/11/11 02:05:55;;;;;;;2.70;1.60;;;20.40;48.20;;;;;;5048161;28;20048;-53
2022/11/11 02:08:40;;;;;;;3.47;1.70;;;20.50;48.30;;;;;;5050046;28;20099;-55
2022/11/11 02:14:35;;;;;;;2.20;1.50;;;20.50;48.30;;;;;;5051027;28;20064;-53
2022/11/11 02:17:20;;;;;;;4.47;1.95;;;20.50;48.30;;;;;;5051961;28;20044;-55
2022/11/11 02:20:06;;;;;;;2.17;1.50;;;20.50;48.30;;;;;;5049072;28;20036;-50
2022/11/11 02:22:55;;;;;;;4.68;1.70;;;20.40;48.30;;;;;;5051208;28;20114;-54
2022/11/11 02:25:44;;;;;;;3.10;1.80;;;20.40;48.40;;;;;;5049237;28;20114;-51
2022/11/11 02:28:31;;;;;;;2.92;1.80;;;20.50;48.50;;;;;;5050594;28;20063;-53
2022/11/11 02:31:16;;;;;;;3.10;2.10;;;20.50;48.50;;;;;;5050449;28;20894;-53
2022/11/11 02:34:00;;;;;;;4.03;2.03;;;20.40;48.50;;;;;;5047553;28;20040;-52
2022/11/11 02:36:45;;;;;;;3.75;2.38;;;20.40;48.50;;;;;;5051094;28;20128;-53
2022/11/11 02:39:30;;;;;;;4.13;2.63;;;20.40;48.50;;;;;;5051030;28;20039;-49
2022/11/11 02:42:17;;;;;;;4.05;2.55;;;20.40;48.40;;;;;;5049935;28;20095;-54
2022/11/11 02:45:01;;;;;;;4.72;2.85;;;20.40;48.50;;;;;;5050410;28;20383;-54
2022/11/11 02:47:45;;;;;;;4.43;3.08;;;20.40;48.40;;;;;;5046753;28;20110;-55
2022/11/11 02:50:30;;;;;;;4.68;3.20;;;20.40;48.50;;;;;;5047544;28;20466;-52
2022/11/11 02:53:14;;;;;;;5.18;3.22;;;20.40;48.50;;;;;;5047207;28;20419;-54
2022/11/11 02:55:59;;;;;;;5.07;3.42;;;20.40;48.50;;;;;;5049531;28;20083;-54
2022/11/11 02:58:43;;;;;;;5.15;3.50;;;20.40;48.50;;;;;;5050693;28;20056;-53
2022/11/11 03:01:27;;;;;;;5.13;3.45;;;20.40;48.60;;;;;;5022484;28;20051;-51
2022/11/11 03:04:12;;;;;;;4.63;3.65;;;20.40;48.50;;;;;;5049712;28;20044;-53
2022/11/11 03:06:57;;;;;;;5.78;3.28;;;20.40;48.50;;;;;;5050709;28;20118;-54
2022/11/11 03:09:41;;;;;;;4.93;3.67;;;20.40;48.50;;;;;;5047778;28;20043;-54
2022/11/11 03:12:26;;;;;;;4.38;3.50;;;20.40;48.50;;;;;;5051099;28;20044;-53
2022/11/11 03:15:10;;;;;;;5.22;3.72;;;20.40;48.50;;;;;;5049245;28;20116;-52
2022/11/11 03:17:54;;;;;;;5.00;3.63;;;20.40;48.50;;;;;;5045308;28;20044;-56
2022/11/11 03:23:41;;;;;;;5.75;3.70;;;20.40;48.50;;;;;;5050436;28;20607;-50
2022/11/11 03:26:26;;;;;;;5.85;3.97;;;20.40;48.50;;;;;;5049090;28;20040;-55
2022/11/11 03:29:10;;;;;;;6.75;3.95;;;20.40;48.50;;;;;;5045171;28;20044;-56
2022/11/11 03:31:55;;;;;;;5.07;3.90;;;20.40;48.50;;;;;;5048756;28;20086;-56
2022/11/11 03:34:39;;;;;;;4.65;3.63;;;20.40;48.50;;;;;;5050084;28;20128;-53
2022/11/11 03:40:26;;;;;;;5.53;3.72;;;20.40;48.50;;;;;;5049735;28;20031;-54
2022/11/11 03:43:13;;;;;;;5.93;3.78;;;20.40;48.50;;;;;;5033316;28;20426;-53
2022/11/11 03:45:59;;;;;;;5.47;3.95;;;20.30;48.40;;;;;;5046493;28;20416;-53
2022/11/11 03:48:44;;;;;;;5.53;3.72;;;20.30;48.50;;;;;;5047957;28;20044;-53
2022/11/11 03:51:28;;;;;;;3.67;3.35;;;20.30;48.50;;;;;;5049335;28;20458;-49
2022/11/11 03:54:12;;;;;;;4.43;3.72;;;20.30;48.50;;;;;;5048034;28;20036;-53
2022/11/11 03:57:29;;;;;;;5.10;4.20;;;20.30;48.50;;;;;;5048129;28;20044;-48
2022/11/11 04:00:02;;;;;;;4.38;3.60;;;20.30;48.50;;;;;;5047854;28;20122;-52
2022/11/11 04:11:57;;;;;;;5.10;3.30;;;20.30;48.40;;;;;;5047874;28;20083;-51
2022/11/11 04:17:44;;;;;;;4.40;3.53;;;20.30;48.50;;;;;;5046332;28;20051;-51
2022/11/11 04:23:31;;;;;;;4.35;3.25;;;20.30;48.50;;;;;;5046981;28;20102;-48
2022/11/11 04:26:15;;;;;;;5.37;3.53;;;20.30;48.50;;;;;;5049802;28;20039;-52
2022/11/11 04:32:37;;;;;;;4.78;3.30;;;20.30;48.60;;;;;;5048497;28;20126;-55
2022/11/11 04:35:22;;;;;;;5.32;3.53;;;20.30;48.50;;;;;;5047540;28;20150;-52
2022/11/11 04:41:11;;;;;;;4.70;3.00;;;20.30;48.60;;;;;;5048497;28;20037;-53
2022/11/11 04:47:06;;;;;;;4.60;3.50;;;20.30;48.60;;;;;;5027641;28;20048;-54
2022/11/11 04:49:51;;;;;;;4.93;3.45;;;20.30;48.60;;;;;;5048018;28;20134;-55
2022/11/11 04:52:35;;;;;;;4.93;3.17;;;20.30;48.60;;;;;;5048580;28;20028;-52
2022/11/11 04:58:25;;;;;;;4.45;2.97;;;20.20;48.50;;;;;;5046643;28;20106;-50
2022/11/11 05:01:09;;;;;;;3.88;3.28;;;20.20;48.50;;;;;;5049931;28;20060;-52
2022/11/11 05:03:53;;;;;;;4.70;3.30;;;20.20;48.50;;;;;;5052991;28;20044;-53
2022/11/11 05:09:41;;;;;;;4.57;3.38;;;20.20;48.50;;;;;;5048260;28;20412;-53
2022/11/11 05:12:25;;;;;;;3.60;3.03;;;20.30;48.50;;;;;;5052210;28;20086;-53
2022/11/11 05:21:25;;;;;;;3.90;2.75;;;20.20;48.40;;;;;;5051361;28;20036;-52
2022/11/11 05:27:12;;;;;;;4.32;3.03;;;20.20;48.50;;;;;;5051754;28;20044;-54
2022/11/11 05:29:57;;;;;;;4.78;3.10;;;20.20;48.50;;;;;;5051404;28;20124;-49
2022/11/11 05:32:42;;;;;;;4.82;3.33;;;20.20;48.50;;;;;;5051833;28;20447;-49
2022/11/11 05:35:26;;;;;;;4.72;2.80;;;20.20;48.40;;;;;;5052368;28;20084;-54
2022/11/11 05:38:19;;;;;;;3.78;3.00;;;20.20;48.50;;;;;;5052168;28;20118;-55
2022/11/11 05:41:04;;;;;;;4.95;3.03;;;20.20;48.40;;;;;;5051647;28;20044;-52
2022/11/11 05:43:48;;;;;;;3.83;2.70;;;20.20;48.40;;;;;;5048998;28;20490;-53
2022/11/11 05:46:33;;;;;;;3.42;2.65;;;20.20;48.40;;;;;;5047900;28;20040;-55
2022/11/11 05:49:17;;;;;;;3.88;2.80;;;20.20;48.40;;;;;;5050207;28;20039;-56
2022/11/11 05:52:03;;;;;;;3.92;2.60;;;20.20;48.40;;;;;;5052399;28;20090;-50
2022/11/11 05:54:47;;;;;;;3.90;2.53;;;20.20;48.50;;;;;;5051920;28;20039;-53
2022/11/11 05:57:31;;;;;;;3.80;2.60;;;20.10;48.40;;;;;;5051434;28;20048;-51
2022/11/11 06:00:16;;;;;;;3.70;2.92;;;20.20;48.40;;;;;;5048234;28;20097;-56
2022/11/11 06:03:03;;;;;;;3.85;2.42;;;20.10;48.40;;;;;;5048749;28;20056;-51
2022/11/11 06:05:49;;;;;;;3.60;2.67;;;20.10;48.40;;;;;;5050722;28;22053;-52
2022/11/11 06:08:33;;;;;;;3.05;2.35;;;20.10;48.40;;;;;;5048018;28;20124;-53
2022/11/11 06:11:18;;;;;;;4.05;2.88;;;20.10;48.40;;;;;;5051350;28;20130;-52
2022/11/11 06:14:03;;;;;;;4.07;2.53;;;20.10;48.40;;;;;;5051391;28;20111;-51
2022/11/11 06:16:47;;;;;;;3.95;2.72;;;20.10;48.40;;;;;;5049288;28;20056;-56
2022/11/11 06:19:31;;;;;;;3.65;2.85;;;20.10;48.40;;;;;;5047674;28;20090;-53
2022/11/11 06:22:54;;;;;;;2.65;2.10;;;20.10;48.40;;;;;;5051200;28;20071;-54
2022/11/11 06:28:30;;;;;;;4.20;2.65;;;20.10;48.40;;;;;;5049960;28;20047;-48
2022/11/11 06:31:20;;;;;;;3.75;2.47;;;20.10;48.40;;;;;;5050698;28;20039;-55
2022/11/11 06:34:04;;;;;;;3.83;2.65;;;20.10;48.40;;;;;;5048861;28;20102;-53
2022/11/11 06:36:49;;;;;;;4.07;2.80;;;20.10;48.40;;;;;;5049887;28;20055;-53
2022/11/11 06:39:33;;;;;;;3.28;2.25;;;20.10;48.40;;;;;;5048814;28;20048;-55
2022/11/11 06:42:17;;;;;;;5.75;2.40;;;20.10;48.50;;;;;;5051558;28;20056;-51
2022/11/11 06:45:01;;;;;;;3.13;2.30;;;20.10;48.40;;;;;;5048678;28;20473;-54
2022/11/11 06:47:45;;;;;;;3.47;2.63;;;20.10;48.40;;;;;;5049109;28;20044;-54
2022/11/11 06:50:32;;;;;;;4.03;2.38;;;20.10;48.40;;;;;;5051062;28;20032;-54
2022/11/11 06:53:18;;;;;;;3.13;2.50;;;20.10;48.40;;;;;;5048911;28;20454;-53
2022/11/11 06:56:02;;;;;;;3.30;2.17;;;20.10;48.40;;;;;;5047325;28;20091;-56
2022/11/11 06:58:47;;;;;;;4.05;2.47;;;20.10;48.40;;;;;;5049692;28;20060;-54
2022/11/11 07:01:31;;;;;;;3.63;2.35;;;20.10;48.40;;;;;;5045763;28;20528;-54
2022/11/11 07:04:15;;;;;;;2.60;1.92;;;20.10;48.40;;;;;;5048141;28;20459;-52
2022/11/11 07:07:00;;;;;;;2.80;2.50;;;20.10;48.40;;;;;;5049172;28;20090;-54
2022/11/11 07:09:44;;;;;;;3.75;2.42;;;20.10;48.30;;;;;;5047061;28;20143;-54
2022/11/11 07:12:29;;;;;;;3.80;2.72;;;20.10;48.30;;;;;;5051005;28;20376;-48
2022/11/11 07:15:13;;;;;;;4.20;2.67;;;20.10;48.30;;;;;;5048193;28;20052;-55
2022/11/11 07:17:58;;;;;;;3.63;2.50;;;20.10;48.30;;;;;;5048275;28;20055;-55
2022/11/11 07:20:43;;;;;;;3.25;2.70;;;20.10;48.20;;;;;;5048990;28;20037;-54
2022/11/11 07:23:28;;;;;;;4.78;2.70;;;20.10;48.20;;;;;;5047144;28;20371;-55
2022/11/11 07:26:12;;;;;;;3.25;2.28;;;20.10;48.10;;;;;;5050548;28;20035;-52
2022/11/11 07:28:57;;;;;;;3.92;2.70;;;20.10;48.10;;;;;;5049100;28;20151;-51
2022/11/11 07:31:41;;;;;;;4.93;2.88;;;20.10;48.10;;;;;;5048202;28;20095;-52
2022/11/11 07:34:27;;;;;;;3.47;2.80;;;20.10;48.00;;;;;;5049988;28;20052;-53
2022/11/11 07:37:11;;;;;;;4.53;3.00;;;20.10;48.00;;;;;;5047582;28;20613;-54
2022/11/11 07:39:56;;;;;;;5.88;2.70;;;20.10;47.90;;;;;;5047373;28;20579;-55
2022/11/11 07:42:41;;;;;;;4.25;2.83;;;20.10;47.90;;;;;;5048280;28;20098;-53
2022/11/11 07:45:25;;;;;;;4.32;3.05;;;20.10;47.80;;;;;;5046534;28;20079;-54
2022/11/11 07:48:09;;;;;;;5.53;3.45;;;20.10;47.70;;;;;;5041738;28;20427;-53
2022/11/11 07:50:54;;;;;;;5.63;3.10;;;20.10;47.70;;;;;;5045343;28;20071;-54
2022/11/11 07:53:38;;;;;;;4.53;3.10;;;20.10;47.60;;;;;;5041394;28;20064;-50
2022/11/11 07:56:23;;;;;;;4.53;3.08;;;20.10;47.60;;;;;;5047945;28;20466;-56
2022/11/11 07:59:08;;;;;;;4.63;3.35;;;20.10;47.50;;;;;;5046705;28;20064;-53
2022/11/11 08:01:52;;;;;;;4.28;2.97;;;20.10;47.40;;;;;;5048928;28;20057;-52
2022/11/11 08:04:36;;;;;;;;;;;20.10;47.40;;;;;;5050172;28;20094;-52
2022/11/11 08:07:20;;;;;;;5.82;3.28;;;20.10;47.30;;;;;;5043130;28;20350;-52
2022/11/11 08:10:05;;;;;;;4.47;3.33;;;20.10;47.30;;;;;;5042370;28;20099;-56
2022/11/11 08:15:56;;;;;;;4.47;3.00;;;20.10;47.30;;;;;;5048235;28;20103;-52
2022/11/11 08:18:41;;;;;;;6.38;3.60;;;20.10;47.20;;;;;;5045418;28;20464;-53
2022/11/11 08:21:28;;;;;;;6.32;3.60;;;20.10;47.20;;;;;;5046202;28;20058;-52
2022/11/11 08:24:12;;;;;;;6.03;3.88;;;20.10;47.20;;;;;;5048153;28;20048;-54
2022/11/11 08:26:57;;;;;;;5.15;3.53;;;20.10;47.10;;;;;;5047422;28;20040;-53
2022/11/11 08:29:41;;;;;;;5.88;3.22;;;20.20;47.10;;;;;;5054314;28;20090;-52
2022/11/11 08:32:26;;;;;;;6.30;3.30;;;20.20;47.10;;;;;;5051343;28;20486;-56
2022/11/11 08:35:10;;;;;;;5.28;3.47;;;20.20;47.00;;;;;;5038233;28;20110;-50
2022/11/11 08:37:59;;;;;;;5.80;3.03;;;20.20;46.90;;;;;;5045199;28;20498;-50
2022/11/11 08:40:43;;;;;;;8.85;3.63;;;20.20;46.90;;;;;;5047479;28;20482;-55
2022/11/11 08:43:31;;;;;;;;;;;20.20;46.90;;;;;;5043294;28;20048;-53
2022/11/11 08:46:15;;;;;;;6.50;3.05;;;20.20;46.80;;;;;;5051723;28;19936;-56
2022/11/11 08:48:59;;;;;;;4.50;2.80;;;20.20;46.80;;;;;;5051068;28;20117;-50
2022/11/11 08:51:44;;;;;;;6.18;3.25;;;20.20;46.80;;;;;;5053586;28;20343;-53
2022/11/11 08:54:28;;;;;;;4.90;3.13;;;20.20;46.70;;;;;;5053847;28;20048;-52
2022/11/11 08:57:13;;;;;;;4.45;3.22;;;20.20;46.70;;;;;;5050104;28;20060;-55
2022/11/11 08:59:57;;;;;;;7.05;3.10;;;20.20;46.70;;;;;;5050376;28;20095;-54
2022/11/11 09:02:41;;;;;;;6.22;3.35;;;20.20;46.70;;;;;;5050560;28;20114;-49
2022/11/11 09:05:25;;;;;;;7.38;3.40;;;20.20;46.70;;;;;;5044455;28;20150;-54
2022/11/11 09:08:10;;;;;;;5.55;2.83;;;20.20;46.80;;;;;;5045260;28;20060;-53
2022/11/11 09:11:01;;;;;;;5.70;3.13;;;20.30;46.80;;;;;;5048306;28;20072;-54
2022/11/11 09:13:46;;;;;;;5.35;3.42;;;20.30;46.70;;;;;;5044952;28;20071;-52
2022/11/11 09:16:31;;;;;;;4.35;3.13;;;20.30;46.60;;;;;;5048145;28;20044;-53
2022/11/11 09:19:15;;;;;;;4.70;3.10;;;20.30;46.50;;;;;;5046734;28;20507;-52
2022/11/11 09:21:59;;;;;;;4.32;2.92;;;20.30;46.50;;;;;;5038051;28;20137;-53
2022/11/11 09:24:43;;;;;;;6.85;3.65;;;20.30;46.40;;;;;;5050067;28;20546;-54
2022/11/11 09:27:28;;;;;;;6.05;2.75;;;20.30;46.30;;;;;;5057626;28;20532;-51
2022/11/11 09:30:12;;;;;;;4.43;2.80;;;20.30;46.30;;;;;;5057188;28;20087;-54
2022/11/11 09:33:03;;;;;;;4.35;2.53;;;20.30;46.20;;;;;;5057326;28;20711;-47
2022/11/11 09:35:47;;;;;;;5.07;2.97;;;20.30;46.20;;;;;;5037452;28;20060;-53
2022/11/11 09:38:31;;;;;;;4.20;2.72;;;20.40;46.20;;;;;;5037108;28;20040;-54
2022/11/11 09:41:37;;;;;;;4.68;2.72;;;20.40;46.10;;;;;;5037603;28;20103;-53
2022/11/11 09:44:56;;;;;;;5.18;2.80;;;20.40;46.00;;;;;;5037592;28;20106;-51
2022/11/11 09:47:55;;;;;;;4.60;2.47;;;20.40;45.90;;;;;;5044149;28;20044;-56
2022/11/11 09:50:41;;;;;;;4.35;2.67;;;20.40;45.90;;;;;;5057159;28;20044;-53
2022/11/11 09:53:36;;;;;;;4.22;2.50;;;20.40;45.90;;;;;;5057169;28;20051;-53
2022/11/11 09:56:24;;;;;;;4.82;2.60;;;20.40;45.90;;;;;;5057204;28;20087;-52
2022/11/11 09:59:20;;;;;;;3.97;2.58;;;20.40;45.90;;;;;;5057141;28;20063;-51
2022/11/11 10:02:16;;;;;;;5.10;2.25;;;20.40;45.90;;;;;;5055475;28;20479;-52
2022/11/11 10:05:15;;;;;;;3.80;2.35;;;20.40;45.90;;;;;;5037380;28;20045;-55
2022/11/11 10:08:08;;;;;;;4.13;2.28;;;20.40;45.80;;;;;;5044461;28;20040;-51
2022/11/11 10:10:54;;;;;;;4.20;2.40;;;20.40;45.80;;;;;;5037085;28;20479;-54
2022/11/11 10:13:38;;;;;;;4.13;2.50;;;20.40;45.80;;;;;;5043926;28;20536;-51
2022/11/11 10:16:26;;;;;;;3.72;2.28;;;20.40;45.80;;;;;;5056554;28;20099;-54
2022/11/11 10:19:28;;;;;;;3.78;2.45;;;20.40;45.80;;;;;;5045762;28;20455;-54
2022/11/11 10:22:30;;;;;;;4.88;2.35;;;20.40;45.70;;;;;;5036895;28;20040;-51
2022/11/11 10:25:21;;;;;;;4.13;2.00;;;20.50;45.70;;;;;;5042520;28;20095;-49
2022/11/11 10:28:13;;;;;;;3.13;2.40;;;20.50;45.80;;;;;;5036782;28;20523;-50
2022/11/11 10:31:00;;;;;;;3.60;2.40;;;20.50;45.70;;;;;;5036485;28;20112;-54
2022/11/11 10:34:04;;;;;;;2.88;2.28;;;20.50;45.70;;;;;;5040194;28;20052;-52
2022/11/11 10:36:53;;;;;;;3.28;2.20;;;20.50;45.70;;;;;;5055367;28;20056;-52
2022/11/11 10:40:02;;;;;;;3.30;2.17;;;20.50;45.70;;;;;;5036515;28;20087;-52
2022/11/11 10:42:47;;;;;;;3.58;2.08;;;20.50;45.70;;;;;;5036132;28;20364;-53
2022/11/11 10:45:50;;;;;;;2.83;2.15;;;20.50;45.60;;;;;;5036402;28;20051;-55
2022/11/11 10:48:56;;;;;;;3.42;2.20;;;20.60;45.70;;;;;;5036163;28;20110;-55
2022/11/11 10:52:02;;;;;;;3.20;1.90;;;20.60;45.70;;;;;;5036931;28;20118;-54
2022/11/11 10:55:00;;;;;;;3.50;2.00;;;20.50;45.60;;;;;;5036206;28;20052;-52
2022/11/11 10:57:56;;;;;;;4.30;2.55;;;20.50;45.60;;;;;;5037779;28;20134;-53
2022/11/11 11:00:44;;;;;;;4.28;2.70;;;20.60;45.90;;;;;;5045101;28;20091;-53
2022/11/11 11:03:36;;;;;;;5.20;3.00;;;20.60;46.30;;;;;;5045695;28;20117;-55
2022/11/11 11:06:27;;;;;;;4.90;2.75;;;20.60;46.50;;;;;;5046496;28;20129;-53
2022/11/11 11:09:21;;;;;;;4.07;2.80;;;20.60;46.70;;;;;;5046294;28;20131;-52
2022/11/11 11:12:19;;;;;;;3.30;2.42;;;20.70;47.00;;;;;;5045615;28;20095;-54
2022/11/11 11:15:25;;;;;;;4.70;2.95;;;20.70;46.90;;;;;;5046975;28;20076;-52
2022/11/11 11:18:15;;;;;;;4.28;2.92;;;20.70;47.50;;;;;;5041978;28;20071;-53
2022/11/11 11:21:02;;;;;;;4.50;2.92;;;20.80;46.90;;;;;;5049584;28;20044;-55
2022/11/11 11:23:46;;;;;;;4.55;2.47;;;20.80;46.90;;;;;;5039176;28;20060;-54
2022/11/11 11:26:46;;;;;;;3.38;2.60;;;20.80;46.90;;;;;;5040488;28;20083;-56
2022/11/11 11:29:32;;;;;;;4.75;2.50;;;20.80;46.80;;;;;;5043128;28;20175;-50
2022/11/11 11:32:28;;;;;;;4.78;2.63;;;20.80;46.80;;;;;;5047780;28;20040;-56
2022/11/11 11:35:29;;;;;;;7.32;3.72;;;20.90;46.80;;;;;;5035231;28;20381;-53
2022/11/11 11:38:13;;;;;;;6.20;3.80;;;20.90;46.80;;;;;;5041947;28;20056;-50
2022/11/11 11:40:58;;;;;;;6.05;3.40;;;20.90;46.70;;;;;;5049006;28;20102;-52
2022/11/11 11:43:43;;;;;;;4.47;2.70;;;20.90;46.70;;;;;;5051736;28;20075;-52
2022/11/11 11:46:31;;;;;;;5.70;3.10;;;20.90;46.70;;;;;;5047155;28;20052;-54
2022/11/11 11:49:31;;;;;;;6.03;3.65;;;20.90;46.70;;;;;;5043640;28;20111;-52
2022/11/11 11:52:26;;;;;;;3.72;2.60;;;21.00;46.70;;;;;;5041550;28;20060;-56
2022/11/11 11:55:18;;;;;;;3.15;2.47;;;21.00;46.70;;;;;;5042275;28;20036;-49
2022/11/11 11:58:32;;;;;;;4.00;2.28;;;21.00;46.60;;;;;;5044378;28;20515;-51
2022/11/11 12:01:47;;;;;;;3.97;2.63;;;21.00;46.50;;;;;;5041597;28;20467;-53
2022/11/11 12:04:43;;;;;;;3.13;2.28;;;21.00;46.50;;;;;;5045564;28;20509;-55
2022/11/11 12:07:43;;;;;;;3.35;2.30;;;21.00;46.50;;;;;;5045481;28;21692;-52
2022/11/11 12:10:56;;;;;;;3.80;2.22;;;21.00;46.50;;;;;;5043432;28;20056;-52
2022/11/11 12:14:26;;;;;;;3.33;1.90;;;21.10;46.60;;;;;;5043056;28;20060;-55
2022/11/11 12:17:27;;;;;;;3.53;2.08;;;21.10;46.60;;;;;;5041416;28;20052;-53
2022/11/11 12:20:31;;;;;;;3.08;2.17;;;21.10;46.50;;;;;;5043413;28;20047;-54
2022/11/11 12:23:46;;;;;;;2.35;1.67;;;21.10;46.40;;;;;;5047542;28;20044;-51
2022/11/11 12:26:52;;;;;;;3.00;1.90;;;21.10;46.30;;;;;;5049588;28;20120;-52
2022/11/11 12:29:51;;;;;;;4.43;2.03;;;21.10;46.30;;;;;;5045678;28;20043;-52
2022/11/11 12:33:05;;;;;;;3.00;1.98;;;21.10;46.30;;;;;;5045707;28;20041;-49
2022/11/11 12:36:08;;;;;;;2.13;1.70;;;21.10;46.10;;;;;;5042659;28;20184;-55
2022/11/11 12:39:21;;;;;;;3.70;1.70;;;21.20;46.10;;;;;;5040962;28;20108;-55
2022/11/11 12:42:19;;;;;;;2.40;1.42;;;21.20;46.00;;;;;;5039781;28;20036;-52
2022/11/11 12:45:17;;;;;;;2.17;1.27;;;21.10;45.90;;;;;;5039424;28;20049;-51
2022/11/11 12:48:26;;;;;;;2.60;1.50;;;21.20;45.90;;;;;;5042492;28;20099;-57
2022/11/11 12:51:19;;;;;;;2.00;1.58;;;21.20;45.90;;;;;;5039655;28;20087;-58
2022/11/11 12:54:23;;;;;;;1.53;1.10;;;21.20;46.00;;;;;;5041391;28;20148;-58
2022/11/11 12:57:22;;;;;;;1.75;1.20;;;21.20;45.90;;;;;;5039601;28;20377;-55
2022/11/11 13:00:22;;;;;;;1.30;0.90;;;21.30;45.90;;;;;;5042547;28;20060;-59
2022/11/11 13:03:38;;;;;;;1.85;1.05;;;21.40;45.90;;;;;;5042782;28;20037;-57
2022/11/11 13:06:44;;;;;;;2.47;1.33;;;21.50;45.80;;;;;;5047408;28;20044;-57
2022/11/11 13:09:50;;;;;;;1.77;1.10;;;21.60;45.60;;;;;;5041381;28;20533;-59
2022/11/11 13:12:41;;;;;;;1.65;1.10;;;21.80;45.40;;;;;;5038377;28;20106;-58
2022/11/11 13:15:26;;;;;;;1.58;1.00;;;21.90;45.20;;;;;;5044765;28;20102;-59
2022/11/11 13:18:21;;;;;;;1.17;0.70;;;22.00;44.90;;;;;;5054655;28;20571;-59
2022/11/11 13:21:08;;;;;;;;;;;22.10;44.60;;;;;;5054500;28;20044;-56
2022/11/11 13:23:52;;;;;;;1.13;0.82;;;22.20;44.30;;;;;;5040571;28;19920;-55
2022/11/11 13:26:43;;;;;;;2.65;1.00;;;22.30;44.00;;;;;;5058268;28;20415;-60
2022/11/11 13:29:33;;;;;;;2.25;0.98;;;22.30;43.70;;;;;;5042781;28;20423;-58
2022/11/11 13:32:24;;;;;;;2.95;0.93;;;22.40;43.40;;;;;;5049503;28;20368;-57
2022/11/11 13:35:31;;;;;;;1.75;0.90;;;22.40;43.10;;;;;;5046908;28;20463;-54
2022/11/11 13:38:30;;;;;;;1.02;0.70;;;22.50;42.90;;;;;;5045219;28;20039;-54
2022/11/11 13:41:25;;;;;;;1.00;0.85;;;22.50;42.70;;;;;;5051183;28;20428;-57
2022/11/11 13:44:24;;;;;;;1.10;0.90;;;22.50;42.50;;;;;;5057527;28;20047;-58
2022/11/11 13:47:17;;;;;;;2.60;0.77;;;22.60;42.50;;;;;;5056763;28;20374;-56
2022/11/11 13:50:05;;;;;;;1.10;0.88;;;22.60;43.00;;;;;;5057093;28;20082;-57
2022/11/11 13:53:02;;;;;;;1.13;0.88;;;22.60;42.30;;;;;;5057210;28;20044;-55
2022/11/11 13:55:47;;;;;;;1.95;0.90;;;22.60;42.20;;;;;;5056129;28;20423;-55
2022/11/11 13:58:33;;;;;;;;;;;22.60;42.20;;;;;;5049191;28;20471;-55
2022/11/11 14:01:18;;;;;;;2.50;1.10;;;22.60;42.10;;;;;;5037135;28;19919;-53
2022/11/11 14:04:10;;;;;;;2.05;0.88;;;22.60;42.10;;;;;;5048924;28;20056;-50
2022/11/11 14:06:54;;;;;;;0.95;0.57;;;22.60;42.10;;;;;;5055469;28;20171;-55
2022/11/11 14:09:53;;;;;;;;;;;22.60;42.00;;;;;;5056171;28;20192;-54
2022/11/11 14:12:47;;;;;;;2.90;0.90;;;22.70;42.00;;;;;;5056763;28;20015;-56
2022/11/11 14:15:44;;;;;;;2.03;0.90;;;22.60;41.90;;;;;;5057295;28;20098;-54
2022/11/11 14:18:41;;;;;;;1.75;0.90;;;22.70;41.90;;;;;;5052419;28;20463;-54
2022/11/11 14:21:47;;;;;;;1.80;1.05;;;22.70;41.80;;;;;;5043197;28;20052;-58
2022/11/11 14:24:42;;;;;;;1.50;0.90;;;22.70;41.80;;;;;;5044842;28;20047;-59
2022/11/11 14:27:30;;;;;;;1.33;0.82;;;22.70;41.90;;;;;;5052916;28;20079;-50
2022/11/11 14:30:37;;;;;;;1.48;0.60;;;22.70;42.00;;;;;;5041907;28;20087;-52
2022/11/11 14:33:47;;;;;;;1.02;0.55;;;22.70;42.00;;;;;;5043306;28;20079;-55
2022/11/11 14:36:51;;;;;;;1.42;0.90;;;22.80;42.00;;;;;;5031259;28;20076;-56
2022/11/11 14:39:43;;;;;;;2.00;0.95;;;22.70;41.90;;;;;;5049571;28;20047;-58
2022/11/11 14:42:34;;;;;;;2.10;0.80;;;22.70;41.90;;;;;;5042788;28;20068;-58
2022/11/11 14:45:31;;;;;;;2.42;1.10;;;22.70;41.90;;;;;;5048453;28;20087;-56
2022/11/11 14:48:52;;;;;;;1.38;0.82;;;22.60;41.80;;;;;;5053065;28;20107;-53
2022/11/11 14:51:53;;;;;;;1.60;1.00;;;22.60;41.80;;;;;;5055593;28;20052;-56
2022/11/11 14:55:06;;;;;;;1.30;0.80;;;22.50;41.80;;;;;;5047408;28;20051;-58
2022/11/11 14:58:01;;;;;;;1.70;0.80;;;22.50;41.80;;;;;;5053062;28;20168;-57
2022/11/11 15:00:58;;;;;;;1.95;1.13;;;22.40;41.80;;;;;;5038947;28;20048;-60
2022/11/11 15:03:52;;;;;;;3.55;1.30;;;22.40;41.90;;;;;;5039793;28;20091;-55
2022/11/11 15:06:57;;;;;;;1.65;0.80;;;22.30;41.90;;;;;;5039761;28;20087;-56
2022/11/11 15:10:05;;;;;;;1.42;0.80;;;22.30;41.90;;;;;;5047598;28;20052;-59
2022/11/11 15:13:25;;;;;;;1.88;0.90;;;22.20;42.00;;;;;;5036008;28;20488;-57
2022/11/11 15:16:15;;;;;;;2.50;0.90;;;22.10;42.10;;;;;;5030900;28;20063;-57
2022/11/11 15:19:37;;;;;;;2.13;0.93;;;22.10;42.10;;;;;;5049661;28;20134;-54
2022/11/11 15:22:39;;;;;;;1.67;1.00;;;22.00;42.20;;;;;;5037640;28;20492;-51
2022/11/11 15:25:27;;;;;;;1.90;1.02;;;22.00;42.50;;;;;;5041001;28;20044;-54
2022/11/11 15:28:22;;;;;;;1.65;1.00;;;21.90;42.60;;;;;;5041329;28;20412;-51
2022/11/11 15:31:31;;;;;;;2.15;1.00;;;21.90;42.70;;;;;;5042653;28;20039;-53
2022/11/11 15:34:18;;;;;;;1.83;1.00;;;21.90;42.80;;;;;;5040696;28;20074;-55
2022/11/11 15:37:12;;;;;;;2.50;1.10;;;21.90;42.80;;;;;;5039022;28;20360;-54
2022/11/11 15:39:57;;;;;;;2.58;1.00;;;21.80;42.90;;;;;;5041357;28;20136;-54
2022/11/11 15:42:48;;;;;;;2.40;0.90;;;21.80;43.00;;;;;;5045368;28;20079;-53
2022/11/11 15:45:35;;;;;;;2.28;0.80;;;21.80;43.10;;;;;;5051158;28;20071;-56
2022/11/11 15:48:41;;;;;;;2.83;0.82;;;21.70;43.10;;;;;;5045393;28;20179;-58
2022/11/11 15:51:29;;;;;;;1.98;0.90;;;21.70;43.20;;;;;;5034520;28;20048;-54
2022/11/11 15:54:21;;;;;;;2.30;1.10;;;21.70;43.20;;;;;;5051484;28;20047;-56
2022/11/11 15:57:26;;;;;;;1.48;0.88;;;21.70;43.20;;;;;;5042234;28;20080;-52
2022/11/11 16:00:23;;;;;;;1.55;1.00;;;21.70;43.30;;;;;;5034142;28;20503;-57
2022/11/11 16:03:15;;;;;;;2.10;0.98;;;21.60;43.30;;;;;;5037283;28;20091;-57